createdAt,value
2022-08-09T00:01:43.063Z,76.11
2022-08-09T00:04:33.823Z,77.30
2022-08-09T00:07:03.954Z,76.15
2022-08-09T00:09:37.874Z,75.81
2022-08-09T00:12:05.701Z,77.15
2022-08-09T00:14:37.908Z,76.34
2022-08-09T00:17:06.330Z,77.18
2022-08-09T00:19:34.106Z,76.49
2022-08-09T00:22:03.439Z,76.86
2022-08-09T00:24:32.277Z,76.47
2022-08-09T00:27:01.252Z,76.57
2022-08-09T00:29:39.764Z,77.51
2022-08-09T00:32:26.941Z,76.91
2022-08-09T00:34:55.237Z,76.89
2022-08-09T00:37:22.293Z,76.73
2022-08-09T00:40:09.116Z,76.97
2022-08-09T00:44:10.306Z,76.71
2022-08-09T00:45:25.335Z,77.02
2022-08-09T00:47:52.522Z,77.14
2022-08-09T00:50:23.330Z,77.53
2022-08-09T00:52:50.645Z,77.82
2022-08-09T00:56:02.962Z,77.42
2022-08-09T00:58:05.864Z,77.45
2022-08-09T01:00:35.235Z,77.29
2022-08-09T01:03:19.527Z,77.55
2022-08-09T01:06:20.440Z,77.94
2022-08-09T01:09:09.613Z,77.23
2022-08-09T01:12:02.033Z,76.99
2022-08-09T01:15:17.079Z,77.80
2022-08-09T01:17:57.666Z,77.48
2022-08-09T01:20:45.373Z,77.59
2022-08-09T01:24:10.852Z,78.03
2022-08-09T01:27:12.070Z,77.96
2022-08-09T01:29:54.919Z,77.80
2022-08-09T01:32:34.700Z,78.39
2022-08-09T01:35:29.160Z,78.32
2022-08-09T01:38:10.492Z,78.01
2022-08-09T01:40:53.105Z,78.14
2022-08-09T01:43:42.181Z,78.64
2022-08-09T01:46:26.944Z,78.73
2022-08-09T01:48:59.825Z,78.92
2022-08-09T01:51:32.230Z,80.06
2022-08-09T01:54:02.800Z,78.92
2022-08-09T01:56:33.979Z,79.53
2022-08-09T01:59:08.596Z,79.52
2022-08-09T02:01:59.208Z,79.03
2022-08-09T02:04:26.012Z,78.91
2022-08-09T02:08:35.943Z,79.96
2022-08-09T02:10:18.096Z,81.05
2022-08-09T02:12:46.431Z,80.10
2022-08-09T02:15:19.989Z,80.88
2022-08-09T02:18:09.146Z,80.13
2022-08-09T02:20:46.869Z,79.69
2022-08-09T02:23:54.451Z,80.33
2022-08-09T02:26:27.044Z,79.44
2022-08-09T02:29:02.136Z,79.98
2022-08-09T02:31:38.757Z,80.35
2022-08-09T02:34:25.958Z,80.20
2022-08-09T02:37:05.504Z,79.91
2022-08-09T02:39:45.417Z,80.59
2022-08-09T02:42:25.744Z,79.76
2022-08-09T02:45:09.801Z,80.11
2022-08-09T02:47:57.314Z,79.90
2022-08-09T02:50:38.363Z,80.00
2022-08-09T02:53:26.460Z,80.57
2022-08-09T02:55:58.800Z,80.28
2022-08-09T02:58:32.450Z,80.48
2022-08-09T03:01:08.085Z,80.42
2022-08-09T03:04:18.347Z,80.14
2022-08-09T03:06:29.763Z,81.09
2022-08-09T03:08:58.155Z,80.54
2022-08-09T03:12:04.707Z,80.36
2022-08-09T03:14:15.865Z,80.46
2022-08-09T03:16:47.548Z,80.87
2022-08-09T03:19:52.737Z,80.13
2022-08-09T03:22:11.874Z,80.40
2022-08-09T03:24:42.605Z,79.74
2022-08-09T03:27:21.403Z,80.39
2022-08-09T03:29:57.558Z,80.72
2022-08-09T03:32:31.456Z,80.75
2022-08-09T03:34:59.737Z,81.14
2022-08-09T03:37:55.364Z,81.58
2022-08-09T03:40:18.063Z,82.53
2022-08-09T03:42:46.663Z,77.38
2022-08-09T03:45:14.218Z,82.10
2022-08-09T03:47:46.849Z,82.07
2022-08-09T03:50:18.931Z,82.41
2022-08-09T03:52:59.924Z,82.79
2022-08-09T03:55:30.161Z,81.32
2022-08-09T03:58:14.750Z,81.30
2022-08-09T04:00:46.047Z,82.19
2022-08-09T04:03:24.980Z,81.11
2022-08-09T04:06:05.700Z,82.54
2022-08-09T04:08:33.620Z,82.70
2022-08-09T04:11:01.421Z,81.83
2022-08-09T04:14:37.462Z,81.92
2022-08-09T04:16:19.632Z,82.24
2022-08-09T04:18:49.271Z,81.95
2022-08-09T04:21:18.868Z,82.05
2022-08-09T04:23:53.766Z,82.99
2022-08-09T04:26:24.707Z,81.68
2022-08-09T04:28:56.132Z,82.05
2022-08-09T04:31:37.589Z,83.07
2022-08-09T04:34:13.830Z,82.43
2022-08-09T04:36:50.399Z,82.73
2022-08-09T04:39:17.732Z,82.89
2022-08-09T04:41:44.977Z,83.61
2022-08-09T04:44:14.534Z,82.70
2022-08-09T04:46:58.314Z,82.80
2022-08-09T04:49:53.709Z,82.94
2022-08-09T04:52:26.425Z,83.65
2022-08-09T04:54:59.523Z,83.30
2022-08-09T04:57:54.164Z,83.35
2022-08-09T05:00:16.620Z,84.84
2022-08-09T05:02:44.229Z,84.47
2022-08-09T05:05:31.408Z,83.17
2022-08-09T05:08:05.750Z,83.12
2022-08-09T05:10:34.393Z,82.54
2022-08-09T05:13:04.076Z,84.48
2022-08-09T05:15:43.054Z,85.02
2022-08-09T05:18:37.955Z,83.52
2022-08-09T05:21:10.092Z,84.37
2022-08-09T05:23:57.854Z,84.49
2022-08-09T05:26:45.519Z,83.71
2022-08-09T05:29:21.983Z,84.72
2022-08-09T05:31:58.887Z,85.33
2022-08-09T05:34:32.376Z,85.20
2022-08-09T05:37:11.348Z,84.83
2022-08-09T05:39:43.750Z,85.40
2022-08-09T05:42:20.524Z,83.94
2022-08-09T05:44:53.002Z,84.93
2022-08-09T05:47:22.744Z,85.64
2022-08-09T05:50:28.050Z,84.29
2022-08-09T05:52:44.646Z,84.06
2022-08-09T05:55:21.804Z,85.04
2022-08-09T05:57:57.419Z,84.57
2022-08-09T06:00:29.027Z,84.38
2022-08-09T06:03:03.364Z,84.23
2022-08-09T06:05:50.145Z,83.09
2022-08-09T06:08:24.709Z,83.52
2022-08-09T06:10:55.350Z,83.83
2022-08-09T06:13:23.661Z,83.83
2022-08-09T06:15:52.379Z,83.83
2022-08-09T06:18:25.337Z,83.77
2022-08-09T06:20:58.523Z,82.90
2022-08-09T06:23:59.022Z,82.64
2022-08-09T06:26:21.010Z,82.01
2022-08-09T06:29:00.425Z,80.35
2022-08-09T06:31:40.599Z,79.46
2022-08-09T06:34:22.623Z,77.78
2022-08-09T06:36:50.630Z,76.69
2022-08-09T06:39:26.056Z,73.52
2022-08-09T06:42:13.152Z,72.48
2022-08-09T06:44:40.156Z,71.20
2022-08-09T06:47:07.112Z,69.44
2022-08-09T06:50:11.709Z,68.99
2022-08-09T06:52:29.654Z,68.99
2022-08-09T06:54:56.681Z,67.90
2022-08-09T06:57:42.444Z,66.56
2022-08-09T07:00:50.474Z,65.25
2022-08-09T07:02:59.087Z,64.41
2022-08-09T07:05:53.797Z,63.12
2022-08-09T07:08:13.248Z,64.38
2022-08-09T07:10:40.513Z,62.81
2022-08-09T07:13:27.732Z,63.79
2022-08-09T07:16:42.915Z,62.46
2022-08-09T07:18:41.511Z,60.64
2022-08-09T07:21:10.387Z,59.59
2022-08-09T07:23:56.527Z,59.72
2022-08-09T07:26:25.602Z,59.53
2022-08-09T07:29:08.986Z,58.15
2022-08-09T07:31:45.854Z,57.78
2022-08-09T07:34:20.436Z,57.05
2022-08-09T07:36:49.692Z,56.50
2022-08-09T07:39:20.518Z,57.43
2022-08-09T07:42:06.471Z,55.77
2022-08-09T07:44:50.934Z,54.34
2022-08-09T07:47:19.841Z,54.29
2022-08-09T07:50:04.643Z,55.35
2022-08-09T07:52:36.527Z,54.64
2022-08-09T07:55:09.705Z,52.96
2022-08-09T07:57:47.133Z,53.80
2022-08-09T08:00:20.835Z,51.86
2022-08-09T08:03:08.249Z,52.78
2022-08-09T08:05:54.016Z,52.03
2022-08-09T08:09:02.633Z,52.29
2022-08-09T08:12:24.020Z,51.16
2022-08-09T08:13:58.584Z,50.43
2022-08-09T08:16:31.287Z,49.63
2022-08-09T08:18:59.826Z,48.33
2022-08-09T08:21:31.229Z,48.32
2022-08-09T08:24:00.868Z,46.89
2022-08-09T08:26:55.042Z,46.36
2022-08-09T08:29:20.388Z,48.45
2022-08-09T08:32:03.667Z,46.52
2022-08-09T08:34:34.593Z,44.91
2022-08-09T08:37:02.527Z,43.29
2022-08-09T08:39:29.578Z,44.62
2022-08-09T08:42:07.417Z,43.97
2022-08-09T08:44:39.465Z,45.59
2022-08-09T08:47:12.255Z,45.71
2022-08-09T08:49:47.790Z,44.31
2022-08-09T08:52:58.202Z,41.78
2022-08-09T08:55:15.372Z,43.78
2022-08-09T08:57:56.385Z,43.99
2022-08-09T09:00:30.475Z,42.85
2022-08-09T09:03:11.857Z,43.13
2022-08-09T09:05:59.139Z,41.64
2022-08-09T09:08:38.103Z,41.64
2022-08-09T09:11:17.832Z,40.29
2022-08-09T09:13:57.586Z,39.48
2022-08-09T09:16:30.557Z,40.32
2022-08-09T09:19:22.602Z,40.37
2022-08-09T09:22:11.845Z,38.67
2022-08-09T09:24:45.340Z,40.98
2022-08-09T09:28:04.184Z,40.25
2022-08-09T09:30:40.073Z,40.50
2022-08-09T09:33:16.571Z,41.85
2022-08-09T09:36:00.732Z,39.74
2022-08-09T09:38:42.849Z,37.30
2022-08-09T09:41:11.294Z,39.66
2022-08-09T09:44:11.143Z,38.51
2022-08-09T09:46:42.126Z,38.44
2022-08-09T09:49:13.194Z,38.94
2022-08-09T09:51:41.776Z,37.98
2022-08-09T09:54:21.047Z,37.77
2022-08-09T09:58:00.676Z,37.88
2022-08-09T09:59:37.365Z,38.99
2022-08-09T10:02:04.462Z,38.43
2022-08-09T10:04:32.317Z,39.98
2022-08-09T10:07:03.537Z,36.92
2022-08-09T10:09:55.061Z,38.79
2022-08-09T10:12:29.449Z,37.73
2022-08-09T10:15:17.424Z,36.98
2022-08-09T10:18:12.461Z,37.88
2022-08-09T10:20:44.720Z,36.88
2022-08-09T10:23:20.841Z,38.62
2022-08-09T10:26:08.093Z,36.12
2022-08-09T10:28:39.138Z,34.07
2022-08-09T10:34:10.278Z,35.26
2022-08-09T10:36:43.932Z,35.91
2022-08-09T10:39:15.780Z,36.66
2022-08-09T10:41:46.253Z,35.01
2022-08-09T10:44:19.362Z,36.23
2022-08-09T10:48:10.178Z,35.49
2022-08-09T10:50:15.012Z,35.71
2022-08-09T10:53:10.322Z,34.98
2022-08-09T10:55:57.947Z,36.86
2022-08-09T10:58:37.500Z,36.08
2022-08-09T11:03:03.351Z,40.46
2022-08-09T11:04:20.051Z,36.19
2022-08-09T11:07:03.343Z,36.02
2022-08-09T11:09:48.237Z,34.40
2022-08-09T11:12:29.469Z,37.32
2022-08-09T11:15:01.491Z,37.19
2022-08-09T11:17:45.208Z,36.47
2022-08-09T11:20:22.649Z,34.83
2022-08-09T11:22:57.199Z,35.31
2022-08-09T11:25:36.257Z,35.44
2022-08-09T11:28:38.640Z,35.53
2022-08-09T11:31:49.308Z,34.80
2022-08-09T11:34:36.326Z,35.41
2022-08-09T11:37:07.574Z,35.26
2022-08-09T11:40:02.711Z,36.49
2022-08-09T11:42:51.440Z,35.78
2022-08-09T11:45:42.452Z,36.10
2022-08-09T11:48:26.330Z,35.39
2022-08-09T11:52:53.791Z,38.86
2022-08-09T11:54:21.381Z,39.84
2022-08-09T11:56:55.271Z,37.25
2022-08-09T11:59:30.144Z,36.20
2022-08-09T12:02:34.817Z,37.14
2022-08-09T12:04:58.701Z,36.50
2022-08-09T12:07:34.360Z,40.40
2022-08-09T12:10:31.795Z,38.75
2022-08-09T12:12:56.156Z,37.96
2022-08-09T12:15:48.626Z,38.53
2022-08-09T12:18:26.172Z,36.98
2022-08-09T12:21:00.422Z,38.93
2022-08-09T12:23:58.054Z,39.57
2022-08-09T12:26:19.798Z,37.52
2022-08-09T12:28:59.206Z,38.69
2022-08-09T12:31:58.838Z,37.28
2022-08-09T12:34:17.726Z,39.84
2022-08-09T12:36:58.902Z,37.70
2022-08-09T12:39:42.793Z,38.18
2022-08-09T12:42:16.355Z,38.21
2022-08-09T12:44:52.019Z,37.73
2022-08-09T12:47:22.777Z,40.05
2022-08-09T12:50:09.064Z,40.65
2022-08-09T12:53:08.147Z,39.62
2022-08-09T12:56:15.442Z,39.54
2022-08-09T12:58:27.271Z,39.65
2022-08-09T13:00:55.934Z,38.77
2022-08-09T13:03:53.315Z,38.60
2022-08-09T13:06:34.583Z,39.99
2022-08-09T13:09:18.186Z,39.45
2022-08-09T13:11:50.356Z,41.37
2022-08-09T13:14:40.761Z,40.26
2022-08-09T13:17:44.024Z,40.92
2022-08-09T13:20:13.323Z,42.17
2022-08-09T13:23:05.164Z,40.80
2022-08-09T13:25:53.318Z,41.58
2022-08-09T13:28:33.789Z,40.70
2022-08-09T13:32:17.133Z,39.53
2022-08-09T13:33:58.830Z,39.44
2022-08-09T13:36:42.653Z,39.57
2022-08-09T13:41:51.303Z,39.38
2022-08-09T13:42:12.466Z,38.95
2022-08-09T13:44:42.842Z,40.08
2022-08-09T13:47:26.962Z,38.39
2022-08-09T13:50:07.885Z,40.55
2022-08-09T13:52:40.576Z,42.09
2022-08-09T13:55:13.816Z,39.73
2022-08-09T13:57:53.082Z,40.35
2022-08-09T14:00:28.531Z,40.64
2022-08-09T14:03:04.013Z,39.72
2022-08-09T14:05:56.576Z,39.77
2022-08-09T14:08:30.386Z,39.77
2022-08-09T14:11:01.405Z,41.06
2022-08-09T14:14:24.887Z,42.32
2022-08-09T14:16:28.844Z,42.11
2022-08-09T14:18:57.352Z,42.05
2022-08-09T14:21:26.940Z,42.16
2022-08-09T14:23:57.613Z,43.00
2022-08-09T14:26:32.612Z,43.15
2022-08-09T14:29:25.856Z,42.36
2022-08-09T14:31:55.832Z,43.39
2022-08-09T14:34:31.564Z,44.01
2022-08-09T14:37:02.639Z,43.24
2022-08-09T14:39:40.539Z,43.96
2022-08-09T14:42:32.066Z,42.65
2022-08-09T14:46:40.436Z,43.22
2022-08-09T14:47:57.017Z,42.28
2022-08-09T14:50:25.370Z,42.13
2022-08-09T14:52:54.616Z,42.32
2022-08-09T14:55:21.981Z,42.68
2022-08-09T14:57:49.675Z,42.03
2022-08-09T15:00:17.862Z,43.68
2022-08-09T15:02:47.771Z,43.28
2022-08-09T15:05:19.285Z,42.43
2022-08-09T15:07:56.305Z,42.98
2022-08-09T15:10:28.247Z,43.53
2022-08-09T15:12:56.803Z,42.48
2022-08-09T15:15:24.687Z,43.89
2022-08-09T15:17:56.069Z,43.75
2022-08-09T15:21:55.259Z,44.62
2022-08-09T15:24:00.751Z,42.96
2022-08-09T15:26:00.642Z,43.52
2022-08-09T15:28:31.036Z,42.77
2022-08-09T15:31:10.066Z,42.77
2022-08-09T15:34:31.977Z,43.38
2022-08-09T15:36:30.302Z,43.26
2022-08-09T15:39:01.049Z,44.08
2022-08-09T15:41:32.290Z,44.40
2022-08-09T15:44:03.995Z,43.08
2022-08-09T15:46:34.526Z,43.10
2022-08-09T15:49:22.732Z,43.21
2022-08-09T15:52:03.907Z,43.76
2022-08-09T15:54:49.103Z,43.83
2022-08-09T15:57:35.997Z,43.41
2022-08-09T16:00:14.633Z,43.85
2022-08-09T16:02:53.706Z,43.93
2022-08-09T16:05:26.327Z,44.21
2022-08-09T16:07:53.283Z,44.47
2022-08-09T16:10:54.671Z,44.35
2022-08-09T16:13:20.956Z,43.84
2022-08-09T16:16:09.917Z,44.45
2022-08-09T16:18:44.699Z,45.25
2022-08-09T16:21:17.464Z,44.48
2022-08-09T16:23:54.850Z,44.43
2022-08-09T16:26:33.859Z,45.15
2022-08-09T16:29:15.534Z,45.08
2022-08-09T16:32:19.168Z,45.72
2022-08-09T16:34:54.400Z,44.75
2022-08-09T16:37:54.527Z,45.74
2022-08-09T16:40:13.893Z,45.22
2022-08-09T16:42:48.633Z,45.33
2022-08-09T16:45:19.610Z,45.99
2022-08-09T16:48:38.779Z,45.96
2022-08-09T16:50:38.275Z,45.72
2022-08-09T16:53:06.040Z,45.63
2022-08-09T16:55:58.338Z,45.53
2022-08-09T16:58:21.200Z,46.08
2022-08-09T17:00:49.477Z,45.63
2022-08-09T17:03:21.655Z,45.85
2022-08-09T17:06:09.408Z,46.43
2022-08-09T17:09:03.142Z,46.63
2022-08-09T17:11:37.710Z,46.43
2022-08-09T17:14:27.346Z,46.85
2022-08-09T17:17:02.354Z,47.61
2022-08-09T17:20:05.124Z,47.73
2022-08-09T17:22:23.967Z,48.15
2022-08-09T17:24:55.018Z,46.94
2022-08-09T17:27:22.929Z,46.98
2022-08-09T17:29:53.079Z,47.34
2022-08-09T17:32:26.675Z,47.45
2022-08-09T17:35:11.547Z,47.84
2022-08-09T17:38:12.671Z,48.03
2022-08-09T17:40:32.618Z,48.03
2022-08-09T17:43:32.672Z,48.30
2022-08-09T17:46:04.114Z,48.79
2022-08-09T17:48:38.901Z,49.06
2022-08-09T17:51:17.920Z,49.18
2022-08-09T17:53:54.934Z,49.97
2022-08-09T17:56:35.255Z,49.62
2022-08-09T17:59:09.083Z,50.02
2022-08-09T18:02:03.235Z,49.93
2022-08-09T18:04:27.076Z,49.71
2022-08-09T18:06:55.636Z,50.65
2022-08-09T18:09:35.714Z,50.31
2022-08-09T18:12:17.272Z,50.66
2022-08-09T18:14:54.226Z,50.61
2022-08-09T18:18:01.535Z,51.14
2022-08-09T18:20:56.085Z,51.63
2022-08-09T18:23:05.244Z,51.65
2022-08-09T18:25:50.135Z,51.53
2022-08-09T18:30:34.826Z,51.05
2022-08-09T18:31:06.765Z,51.74
2022-08-09T18:33:34.507Z,52.36
2022-08-09T18:36:01.553Z,51.77
2022-08-09T18:38:28.908Z,52.12
2022-08-09T18:40:56.200Z,52.36
2022-08-09T18:43:24.899Z,51.83
2022-08-09T18:46:49.262Z,52.19
2022-08-09T18:48:44.298Z,52.13
2022-08-09T18:51:11.252Z,52.49
2022-08-09T18:54:01.905Z,52.52
2022-08-09T18:56:27.018Z,52.54
2022-08-09T18:58:56.234Z,52.87
2022-08-09T19:01:24.066Z,53.28
2022-08-09T19:04:01.343Z,53.20
2022-08-09T19:06:34.343Z,53.16
2022-08-09T19:09:05.702Z,53.23
2022-08-09T19:11:38.335Z,53.38
2022-08-09T19:14:09.490Z,53.75
2022-08-09T19:16:37.939Z,54.35
2022-08-09T19:19:21.526Z,53.87
2022-08-09T19:22:06.172Z,53.95
2022-08-09T19:25:09.912Z,54.33
2022-08-09T19:27:28.487Z,54.24
2022-08-09T19:30:23.281Z,54.19
2022-08-09T19:32:45.952Z,54.72
2022-08-09T19:35:20.198Z,54.70
2022-08-09T19:37:58.043Z,54.35
2022-08-09T19:40:33.375Z,54.35
2022-08-09T19:43:10.431Z,54.19
2022-08-09T19:45:43.355Z,54.83
2022-08-09T19:48:10.825Z,55.82
2022-08-09T19:50:50.749Z,56.51
2022-08-09T19:53:21.695Z,55.61
2022-08-09T19:56:03.502Z,56.63
2022-08-09T19:58:33.767Z,56.82
2022-08-09T20:01:06.005Z,57.10
2022-08-09T20:04:16.971Z,57.92
2022-08-09T20:06:31.411Z,58.34
2022-08-09T20:08:59.492Z,57.55
2022-08-09T20:11:42.993Z,57.78
2022-08-09T20:14:15.382Z,58.01
2022-08-09T20:16:49.993Z,57.84
2022-08-09T20:19:46.379Z,59.44
2022-08-09T20:22:08.963Z,58.45
2022-08-09T20:24:37.383Z,58.92
2022-08-09T20:27:08.827Z,58.65
2022-08-09T20:29:38.789Z,58.73
2022-08-09T20:32:41.935Z,59.23
2022-08-09T20:34:56.482Z,59.98
2022-08-09T20:37:23.851Z,59.91
2022-08-09T20:40:16.833Z,59.26
2022-08-09T20:42:38.238Z,59.45
2022-08-09T20:46:02.030Z,59.93
2022-08-09T20:47:55.175Z,59.34
2022-08-09T20:50:48.182Z,59.54
2022-08-09T20:53:35.838Z,59.44
2022-08-09T20:56:01.949Z,59.37
2022-08-09T20:58:32.424Z,59.24
2022-08-09T21:01:32.446Z,59.80
2022-08-09T21:04:07.906Z,59.82
2022-08-09T21:06:44.728Z,59.92
2022-08-09T21:09:14.152Z,59.47
2022-08-09T21:14:30.917Z,59.80
2022-08-09T21:17:02.096Z,59.82
2022-08-09T21:20:05.255Z,60.02
2022-08-09T21:22:46.898Z,59.19
2022-08-09T21:25:37.962Z,59.42
2022-08-09T21:28:07.125Z,60.05
2022-08-09T21:30:37.011Z,59.62
2022-08-09T21:33:08.429Z,59.69
2022-08-09T21:35:39.462Z,59.48
2022-08-09T21:38:11.216Z,59.76
2022-08-09T21:40:39.632Z,59.83
2022-08-09T21:43:09.028Z,59.82
2022-08-09T21:45:39.181Z,59.96
2022-08-09T21:48:08.398Z,59.56
2022-08-09T21:50:39.030Z,59.41
2022-08-09T21:53:22.395Z,59.70
2022-08-09T21:56:00.486Z,59.71
2022-08-09T21:58:31.190Z,59.94
2022-08-09T22:00:59.197Z,60.17
2022-08-09T22:03:26.460Z,60.74
2022-08-09T22:05:55.236Z,60.20
2022-08-09T22:08:25.752Z,60.74
2022-08-09T22:11:49.531Z,60.66
2022-08-09T22:13:43.562Z,59.33
2022-08-09T22:16:11.804Z,60.59
2022-08-09T22:18:53.262Z,60.57
2022-08-09T22:21:25.015Z,60.89
2022-08-09T22:24:06.580Z,61.32
2022-08-09T22:26:37.743Z,61.01
2022-08-09T22:29:10.027Z,61.54
2022-08-09T22:31:44.313Z,61.26
2022-08-09T22:34:25.862Z,61.64
2022-08-09T22:36:58.250Z,62.05
2022-08-09T22:39:55.586Z,61.92
2022-08-09T22:42:20.827Z,62.00
2022-08-09T22:45:02.266Z,62.02
2022-08-09T22:48:14.692Z,61.87
2022-08-09T22:50:26.837Z,61.97
2022-08-09T22:52:54.933Z,62.15
2022-08-09T22:55:39.428Z,62.29
2022-08-09T22:58:20.492Z,62.29
2022-08-09T23:00:59.744Z,63.11
2022-08-09T23:04:02.405Z,63.21
2022-08-09T23:06:14.241Z,63.51
2022-08-09T23:08:44.961Z,63.51
2022-08-09T23:11:16.668Z,63.77
2022-08-09T23:13:49.095Z,64.68
2022-08-09T23:16:19.239Z,63.86
2022-08-09T23:18:46.200Z,64.44
2022-08-09T23:21:15.810Z,64.14
2022-08-09T23:24:05.190Z,64.30
2022-08-09T23:26:34.897Z,64.24
2022-08-09T23:29:01.859Z,64.22
2022-08-09T23:31:28.783Z,65.22
2022-08-09T23:33:55.715Z,65.16
2022-08-09T23:36:22.677Z,64.77
2022-08-09T23:38:49.664Z,65.02
2022-08-09T23:41:28.893Z,64.92
2022-08-09T23:44:01.529Z,64.55
2022-08-09T23:46:30.645Z,64.85
2022-08-09T23:48:59.424Z,64.59
2022-08-09T23:51:28.089Z,65.39
2022-08-09T23:54:02.911Z,65.37
2022-08-09T23:56:53.180Z,65.45
2022-08-09T23:59:20.956Z,65.14
